Data for 07/11/2013

Time Sea-Level Adjusted Pressure Absolute Pressure Temperature Relative Humidity Dew Point   
(mb) (inHg) (mb) (inHg) (C) (F) (%) (C) (F)
00:05 1015 29.97 844 24.92 21.5 70.8 31 3.8 38.9
00:10 1015 29.97 844 24.92 21 69.7 31 3.4 38
00:15 1015 29.97 844 24.92 21 69.7 30 2.9 37.3
00:20 1015 29.97 844 24.92 21.7 71 26 1.3 34.3
00:25 1015 29.97 844 24.92 22.8 73 25 1.9 35.4
00:30 1015 29.97 844 24.92 23 73.4 24 1.7 35
00:35 1015 29.97 844 24.92 23 73.5 25 2 35.7
00:40 1015 29.97 844 24.92 22.9 73.2 25 2.2 36
00:45 1015 29.97 844 24.92 22.9 73.3 24 1.7 35.1
00:50 1015 29.97 844 24.92 23.1 73.7 24 1.8 35.2
00:55 1015 29.97 844 24.92 23.1 73.5 24 1.8 35.2
01:00 1015 29.97 844 24.92 23.1 73.5 24 1.8 35.3
01:05 1015 29.97 844 24.92 22.9 73.2 25 2.2 35.9
01:10 1015 29.97 844 24.92 22.7 72.8 26 2.4 36.4
01:15 1015 29.97 844 24.92 22.7 72.9 26 2.3 36.1
01:20 1015 29.97 844 24.92 22.4 72.2 27 2.7 36.9
01:25 1015 29.97 844 24.92 22.2 71.9 28 2.8 37
01:30 1015 29.97 844 24.92 22.2 71.9 27 2.3 36.2
01:35 1014 29.94 844 24.92 22.2 72 27 2.6 36.7
01:40 1014 29.94 844 24.92 22 71.6 28 2.6 36.7
01:45 1014 29.94 844 24.92 21.9 71.4 28 2.5 36.6
01:50 1014 29.94 844 24.92 21.7 71.1 28 2.8 37
01:55 1014 29.94 844 24.92 21.4 70.5 29 2.7 36.8
02:00 1015 29.97 844 24.92 21.3 70.3 29 2.9 37.1
02:05 1015 29.97 844 24.92 21.2 70.2 29 2.8 37
02:10 1015 29.97 844 24.92 21.2 70.2 29 2.7 36.8
02:15 1015 29.97 844 24.92 20.8 69.4 33 4.1 39.4
02:20 1015 29.97 844 24.92 19.9 67.7 35 3.9 39.1
02:25 1015 29.97 844 24.92 19.6 67.3 35 3.8 38.9
02:30 1015 29.97 844 24.92 19.3 66.7 34 3.3 38
02:35 1015 29.97 844 24.92 19 66.3 36 3.9 39.1
02:40 1015 29.97 844 24.92 18.6 65.6 39 4.4 39.9
02:45 1015 29.97 844 24.92 18.2 64.7 40 4.4 40
02:50 1015 29.97 844 24.92 17.9 64.2 40 4.2 39.6
02:55 1015 29.97 844 24.92 18 64.5 39 3.9 39.1
03:00 1015 29.97 844 24.92 18.2 64.7 39 4 39.3
03:05 1015 29.97 844 24.92 18.2 64.7 41 4.9 40.8
03:10 1015 29.97 844 24.92 17.6 63.6 39 3.7 38.7
03:15 1015 29.97 844 24.92 17.5 63.5 43 5 41.1
03:20 1014 29.94 844 24.92 16.8 62.3 45 5.1 41.2
03:25 1015 29.97 844 24.92 16.6 61.9 44 4.5 40.1
03:30 1014 29.94 844 24.92 17.2 62.9 41 4 39.3
03:35 1015 29.97 844 24.92 17.1 62.7 43 4.5 40.1
03:40 1014 29.94 844 24.92 16.7 62 46 5 41
03:45 1014 29.94 844 24.92 16.5 61.8 43 4 39.1
03:50 1014 29.94 844 24.92 16.7 62.1 44 4.4 40
03:55 1014 29.94 844 24.92 16.7 62 43 4.2 39.6
04:00 1014 29.94 844 24.92 17 62.5 42 4.2 39.5
04:05 1015 29.97 844 24.92 17 62.5 43 4.3 39.7
04:10 1015 29.97 844 24.92 17.2 63 37 2.4 36.3
04:15 1015 29.97 844 24.92 18.3 65 37 3.6 38.5
04:20 1015 29.97 844 24.92 17.7 63.9 39 3.5 38.4
04:25 1015 29.97 844 24.92 17.8 64 37 2.9 37.3
04:30 1015 29.97 844 24.92 18.1 64.6 36 2.8 37.1
04:35 1015 29.97 844 24.92 18 64.3 39 3.8 38.9
04:40 1015 29.97 844 24.92 17.4 63.2 46 5.7 42.2
04:45 1015 29.97 844 24.92 16.8 62.2 43 4.4 39.9
04:50 1015 29.97 844 24.92 16.6 61.8 43 4.2 39.5
04:55 1015 29.97 844 24.92 16.6 61.9 42 3.7 38.6
05:00 1015 29.97 844 24.92 16.9 62.4 42 3.9 38.9
05:05 1015 29.97 844 24.92 16.8 62.2 43 4.1 39.4
05:10 1015 29.97 844 24.92 16.9 62.4 41 3.7 38.7
05:15 1015 29.97 844 24.92 16.9 62.5 42 4 39.1
05:20 1015 29.97 844 24.92 17 62.5 40 3.5 38.2
05:25 1015 29.97 844 24.92 17.2 63 40 3.7 38.7
05:30 1015 29.97 844 24.92 17.4 63.3 44 5.1 41.2
05:35 1015 29.97 844 24.92 17.8 64 36 2.5 36.6
05:40 1015 29.97 845 24.95 18.4 65.2 35 2.8 37
05:45 1015 29.97 845 24.95 18.8 65.8 33 2.4 36.4
05:50 1015 29.97 845 24.95 18.6 65.4 42 5.5 41.8
05:55 1016 30 845 24.95 17.6 63.6 46 5.8 42.4
06:00 1016 30 845 24.95 17.8 64.1 34 1.9 35.5
06:05 1015 29.97 845 24.95 18.3 64.9 40 4.6 40.3
06:10 1016 30 845 24.95 18.3 65 38 3.9 39
06:15 1016 30 845 24.95 18.9 66 39 4.9 40.8
06:20 1016 30 845 24.95 19.2 66.6 42 6 42.8
06:25 1016 30 845 24.95 19.1 66.3 41 5.7 42.3
06:30 1016 30 845 24.95 19.1 66.4 41 5.7 42.3
06:35 1016 30 845 24.95 19.1 66.3 41 5.7 42.2
06:40 1016 30 845 24.95 19.2 66.6 42 6.1 42.9
06:45 1016 30 845 24.95 19.6 67.3 44 7 44.6
06:50 1016 30 845 24.95 19.7 67.4 47 8.2 46.7
06:55 1016 30 845 24.95 19.9 67.9 43 7.2 44.9
07:00 1016 30 845 24.95 20.8 69.4 43 7.8 46
07:05 1016 30 845 24.95 21.8 71.3 40 7.9 46.3
07:10 1016 30 845 24.95 22.6 72.6 41 8.9 48
07:15 1016 30 845 24.95 22.8 73 42 9.3 48.8
07:20 1016 30 845 24.95 23.2 73.8 38 8.4 47.1
07:25 1016 30 845 24.95 23.6 74.5 39 9.1 48.3
07:30 1016 30 845 24.95 24.4 76 33 7.1 44.8
07:35 1016 30 845 24.95 23.9 75.1 33 6.8 44.3
07:40 1016 30 845 24.95 24 75.2 33 6.7 44.1
07:45 1016 30 845 24.95 24.2 75.5 32 6.7 44.1
07:50 1016 30 845 24.95 23.9 75 32 6.3 43.3
07:55 1016 30 845 24.95 24.2 75.6 29 5.4 41.7
08:00 1016 30 845 24.95 24.5 76 30 6.1 43
08:05 1016 30 845 24.95 24.8 76.7 29 5.8 42.5
08:10 1016 30 845 24.95 25.8 78.4 25 4.5 40
08:15 1016 30 845 24.95 25.5 78 24 3.9 39
08:20 1016 30 845 24.95 25.8 78.5 27 5.5 41.9
08:25 1016 30 845 24.95 25.7 78.2 26 4.8 40.7
08:30 1016 30 845 24.95 25.7 78.2 25 4.6 40.2
08:35 1016 30 845 24.95 25.5 77.8 26 5 41
08:40 1016 30 845 24.95 25.1 77.1 27 4.9 40.8
08:45 1016 30 845 24.95 25.5 77.9 28 5.9 42.5
08:50 1016 30 845 24.95 25.2 77.4 30 6.6 43.8
08:55 1015 29.97 845 24.95 26 78.7 27 5.9 42.7
09:00 1015 29.97 845 24.95 26.9 80.3 23 4.4 39.9
09:05 1016 30 845 24.95 28.2 82.8 19 2.5 36.5
09:10 1015 29.97 845 24.95 28 82.5 22 4.4 40
09:15 1015 29.97 845 24.95 26.9 80.4 21 3 37.4
09:20 1015 29.97 845 24.95 26.9 80.4 23 4.5 40.1
09:25 1015 29.97 844 24.92 26.7 80 23 4.2 39.6
09:30 1015 29.97 844 24.92 26.6 79.9 24 4.8 40.6
09:35 1015 29.97 844 24.92 26.5 79.7 25 5 40.9
09:40 1015 29.97 845 24.95 26.8 80.3 26 6 42.8
09:45 1015 29.97 845 24.95 26.9 80.5 27 6.4 43.6
09:50 1015 29.97 845 24.95 26.4 79.5 28 6.7 44
09:55 1015 29.97 845 24.95 26.4 79.6 27 6.1 43
10:00 1016 30 845 24.95 26.3 79.3 27 5.9 42.5
10:05 1016 30 845 24.95 26.1 79 29 7.2 45
10:10 1016 30 845 24.95 26 78.9 30 7.5 45.4
10:15 1016 30 845 24.95 25.8 78.5 29 6.9 44.4
10:20 1016 30 845 24.95 26.3 79.4 30 7.6 45.7
10:25 1016 30 845 24.95 26 78.8 32 8.5 47.2
10:30 1016 30 845 24.95 25.4 77.7 32 7.9 46.2
10:35 1016 30 845 24.95 25.4 77.8 33 8.2 46.7
10:40 1016 30 845 24.95 25.9 78.6 31 7.8 46.1
10:45 1016 30 845 24.95 26.3 79.4 31 8.3 46.9
10:50 1016 30 845 24.95 26.2 79.2 30 7.5 45.6
10:55 1016 30 845 24.95 26.1 79 29 6.9 44.4
11:00 1016 30 845 24.95 26.6 79.8 27 6.6 43.8
11:05 1016 30 845 24.95 27.3 81.1 27 7.2 44.9
11:10 1016 30 845 24.95 27.6 81.7 28 7.5 45.5
11:15 1016 30 845 24.95 27.7 81.8 24 5.6 42
11:20 1016 30 845 24.95 27.6 81.6 23 4.9 40.9
11:25 1016 30 845 24.95 27.5 81.4 25 5.8 42.5
11:30 1016 30 845 24.95 27.3 81.1 23 4.5 40.1
11:35 1016 30 845 24.95 27.7 81.8 21 3.5 38.3
11:40 1016 30 845 24.95 28 82.4 19 2.3 36.2
11:45 1016 30 845 24.95 27.9 82.2 20 3.1 37.5
11:50 1016 30 845 24.95 28 82.4 17 1.3 34.4
11:55 1016 30 845 24.95 28.1 82.5 18 1.9 35.5
12:00 1016 30 845 24.95 27.8 82 19 2 35.6
12:05 1016 30 845 24.95 27.4 81.4 19 2.2 36
12:10 1016 30 845 24.95 27.3 81.1 19 2.3 36.1
12:15 1016 30 845 24.95 27.1 80.7 21 2.9 37.3
12:20 1016 30 845 24.95 26.7 80 22 3.3 37.9
12:25 1016 30 845 24.95 26.6 80 21 3 37.4
12:30 1016 30 845 24.95 26.9 80.4 22 3.6 38.5
12:35 1016 30 845 24.95 26.9 80.4 22 3.7 38.6
12:40 1016 30 845 24.95 26.9 80.5 23 4.1 39.4
12:45 1016 30 845 24.95 27.3 81.2 23 4.5 40.2
12:50 1016 30 845 24.95 27.4 81.3 21 3.4 38.1
12:55 1016 30 845 24.95 27.3 81.2 22 4.3 39.7
13:00 1016 30 845 24.95 27.3 81.1 23 4.4 40
13:05 1016 30 845 24.95 27.4 81.3 23 4.5 40.1
13:10 1016 30 845 24.95 27.5 81.4 23 5 40.9
13:15 1016 30 845 24.95 27.3 81.2 23 4.9 40.8
13:20 1016 30 845 24.95 27.2 80.9 21 3.5 38.2
13:25 1016 30 845 24.95 27.1 80.7 22 3.6 38.6
13:30 1016 30 845 24.95 26.7 80.1 23 4.2 39.5
13:35 1016 30 845 24.95 26.3 79.4 24 4.5 40
13:40 1016 30 845 24.95 26 78.7 25 4.8 40.7
13:45 1016 30 845 24.95 25.7 78.2 25 4.6 40.2
13:50 1016 30 845 24.95 25.9 78.6 25 4.4 39.9
13:55 1016 30 845 24.95 25.9 78.6 26 5 41
14:00 1016 30 845 24.95 25.7 78.2 24 3.7 38.7
14:05 1016 30 845 24.95 25.7 78.3 24 3.8 38.8
14:10 1016 30 845 24.95 26 78.7 25 4.6 40.2
14:15 1016 30 845 24.95 26.1 79 24 4.4 40
14:20 1016 30 845 24.95 25.8 78.4 25 4.5 40.1
14:25 1016 30 846 24.98 25.4 77.7 26 4.7 40.5
14:30 1017 30.03 846 24.98 25.1 77.2 26 4.8 40.6
14:35 1017 30.03 846 24.98 24.8 76.6 28 5.3 41.5
14:40 1017 30.03 846 24.98 24.5 76 29 5.7 42.3
14:45 1017 30.03 846 24.98 24.2 75.5 29 5 41.1
14:50 1017 30.03 846 24.98 24.1 75.5 30 5.8 42.4
14:55 1017 30.03 846 24.98 24.1 75.4 30 5.5 41.9
15:00 1017 30.03 846 24.98 24.1 75.3 30 5.4 41.8
15:05 1017 30.03 846 24.98 24 75.1 31 6.2 43.2
15:10 1017 30.03 846 24.98 23.7 74.6 32 6.3 43.4
15:15 1017 30.03 846 24.98 23.5 74.3 31 5.8 42.5
15:20 1017 30.03 846 24.98 23.4 74.1 33 6.4 43.5
15:25 1017 30.03 846 24.98 23.3 73.9 33 6.4 43.5
15:30 1017 30.03 846 24.98 23.2 73.7 32 5.8 42.4
15:35 1017 30.03 846 24.98 23.1 73.5 32 5.9 42.6
15:40 1017 30.03 846 24.98 23.1 73.6 31 5.5 41.8
15:45 1017 30.03 846 24.98 23.1 73.6 32 5.9 42.7
15:50 1017 30.03 846 24.98 23 73.3 33 5.9 42.5
15:55 1017 30.03 846 24.98 22.8 73.1 34 6.2 43.1
16:00 1017 30.03 846 24.98 22.6 72.7 33 5.9 42.7
16:05 1017 30.03 846 24.98 22.7 72.8 34 6.2 43.1
16:10 1017 30.03 846 24.98 22.7 72.8 35 6.7 44.1
16:15 1016 30 846 24.98 22.7 72.8 36 6.9 44.5
16:20 1016 30 846 24.98 22.6 72.7 36 6.9 44.5
16:25 1016 30 846 24.98 22.5 72.5 36 7 44.6
16:30 1017 30.03 846 24.98 22.4 72.4 37 7.4 45.2
16:35 1017 30.03 846 24.98 22.3 72.2 37 7.2 44.9
16:40 1017 30.03 846 24.98 22.2 72 38 7.3 45.2
16:45 1017 30.03 846 24.98 22.1 71.8 38 7.4 45.2
16:50 1017 30.03 846 24.98 22.1 71.8 38 7.4 45.3
16:55 1017 30.03 846 24.98 22.2 71.9 38 7.3 45.2
17:00 1017 30.03 846 24.98 22.3 72.2 38 7.7 45.8
17:05 1016 30 846 24.98 22.4 72.3 39 7.9 46.3
17:10 1017 30.03 846 24.98 22.2 72 39 7.7 45.9
17:15 1016 30 846 24.98 22.1 71.7 40 7.9 46.3
17:20 1016 30 845 24.95 21.9 71.4 40 8 46.3
17:25 1016 30 845 24.95 21.6 70.9 40 7.7 45.8
17:30 1016 30 845 24.95 21.6 70.8 41 8 46.4
17:35 1015 29.97 845 24.95 21.6 70.8 41 8.1 46.5
17:40 1016 30 845 24.95 21.7 71.1 39 7.3 45.2
17:45 1015 29.97 845 24.95 22 71.6 34 5.4 41.8
17:50 1016 30 845 24.95 22.2 72 32 5.1 41.2
17:55 1016 30 845 24.95 22.5 72.6 32 5 41.1
18:00 1016 30 845 24.95 22.7 72.9 31 5 41.1
18:05 1016 30 845 24.95 22.6 72.7 31 4.9 40.8
18:10 1016 30 845 24.95 22.5 72.5 32 5 41
18:15 1016 30 845 24.95 22.5 72.4 33 5.6 42.1
18:20 1016 30 845 24.95 22.5 72.6 31 5 40.9
18:25 1015 29.97 845 24.95 22.6 72.6 31 5 41
18:30 1015 29.97 845 24.95 22.5 72.5 32 5.2 41.4
18:35 1015 29.97 844 24.92 22.2 72 32 5.1 41.1
18:40 1015 29.97 844 24.92 22 71.6 33 5.1 41.2
18:45 1015 29.97 844 24.92 22 71.5 32 4.8 40.6
18:50 1014 29.94 844 24.92 22.2 72 31 4.3 39.7
18:55 1014 29.94 844 24.92 22.3 72.1 32 4.8 40.6
19:00 1014 29.94 844 24.92 22 71.6 33 5.1 41.1
19:05 1015 29.97 844 24.92 21.9 71.5 32 4.7 40.5
19:10 1015 29.97 844 24.92 22.1 71.7 32 4.9 40.7
19:15 1015 29.97 844 24.92 22.3 72.1 32 5.1 41.1
19:20 1015 29.97 844 24.92 22.3 72.1 32 5.1 41.1
19:25 1015 29.97 844 24.92 22.2 72 32 5.1 41.2
19:30 1015 29.97 844 24.92 22.2 72 33 5.2 41.4
19:35 1015 29.97 844 24.92 22.1 71.7 34 5.5 41.9
19:40 1015 29.97 845 24.95 21.8 71.3 35 5.9 42.5
19:45 1015 29.97 845 24.95 21.6 70.9 35 5.6 42.2
19:50 1015 29.97 845 24.95 21.5 70.7 35 5.6 42.2
19:55 1015 29.97 845 24.95 21.4 70.4 36 5.7 42.2
20:00 1015 29.97 845 24.95 21.2 70.2 37 6 42.8
20:05 1015 29.97 845 24.95 21.2 70.1 37 6 42.7
20:10 1016 30 845 24.95 21.1 69.9 37 6 42.8
20:15 1016 30 845 24.95 21 69.8 37 5.9 42.6
20:20 1016 30 845 24.95 21 69.7 37 5.9 42.7
20:25 1016 30 845 24.95 20.9 69.6 38 6.1 43
20:30 1016 30 845 24.95 20.7 69.3 38 6.1 43
20:35 1016 30 846 24.98 20.8 69.4 38 6.2 43.2
20:40 1016 30 846 24.98 20.7 69.3 39 6.4 43.5
20:45 1016 30 846 24.98 20.7 69.3 38 6.1 43.1
20:50 1016 30 846 24.98 20.7 69.2 38 5.9 42.6
20:55 1017 30.03 846 24.98 20.7 69.2 38 6.2 43.1
21:00 1017 30.03 846 24.98 20.5 69 38 6 42.9
21:05 1017 30.03 846 24.98 20.6 69.1 36 5.3 41.6
21:10 1017 30.03 846 24.98 20.9 69.6 36 5.6 42.1
21:15 1017 30.03 846 24.98 20.9 69.6 37 5.7 42.2
21:20 1017 30.03 846 24.98 20.8 69.4 36 5.2 41.3
21:25 1017 30.03 846 24.98 21 69.8 35 5.3 41.5
21:30 1017 30.03 846 24.98 21 69.8 36 5.6 42.1
21:35 1017 30.03 846 24.98 20.7 69.3 37 5.7 42.2
21:40 1017 30.03 846 24.98 20.7 69.3 37 5.5 42
21:45 1017 30.03 846 24.98 20.7 69.3 37 5.5 41.9
21:50 1016 30 846 24.98 20.7 69.2 37 5.6 42.2
21:55 1016 30 846 24.98 20.5 68.9 38 5.7 42.3
22:00 1016 30 846 24.98 20.4 68.8 37 5.5 41.8
22:05 1016 30 846 24.98 20.5 68.9 38 5.8 42.4
22:10 1016 30 846 24.98 20.3 68.5 39 6 42.9
22:15 1016 30 846 24.98 20 68.1 40 6.3 43.3
22:20 1016 30 846 24.98 19.8 67.7 41 6.4 43.5
22:25 1016 30 846 24.98 19.6 67.2 43 6.7 44
22:30 1017 30.03 846 24.98 19.4 66.8 43 6.7 44.1
22:35 1017 30.03 846 24.98 19.3 66.7 45 7.1 44.8
22:40 1017 30.03 846 24.98 19.1 66.3 46 7.2 45
22:45 1017 30.03 846 24.98 18.6 65.5 47 7.3 45.2
22:50 1017 30.03 846 24.98 18.5 65.3 47 7.1 44.8
22:55 1017 30.03 846 24.98 18.5 65.4 46 6.9 44.4
23:00 1017 30.03 846 24.98 18.6 65.4 46 7 44.5
23:05 1017 30.03 846 24.98 18.5 65.2 47 7.1 44.7
23:10 1017 30.03 846 24.98 18.3 65 48 7.2 45
23:15 1017 30.03 846 24.98 18.2 64.7 48 7.2 45
23:20 1017 30.03 846 24.98 18 64.4 49 7.1 44.8
23:25 1017 30.03 846 24.98 17.8 64 49 7.1 44.8
23:30 1017 30.03 846 24.98 17.7 63.8 50 7.2 45
23:35 1017 30.03 846 24.98 17.5 63.4 52 7.5 45.5
23:40 1017 30.03 846 24.98 17.3 63.1 49 6.5 43.7
23:45 1017 30.03 846 24.98 17.2 63 48 6.2 43.1
23:50 1017 30.03 847 25.01 17.2 62.9 47 6 42.8
23:55 1017 30.03 847 25.01 17.1 62.8 48 6.1 43
24:00 1017 30.03 847 25.01 17 62.6 51 6.9 44.5